createdAt,value
2022-12-26T00:00:26.234Z,1002.19
2022-12-26T00:01:26.150Z,1002.18
2022-12-26T00:02:26.166Z,1002.11
2022-12-26T00:03:26.255Z,1002.02
2022-12-26T00:04:51.927Z,1002.06
2022-12-26T00:05:26.055Z,1002.06
2022-12-26T00:06:26.040Z,1002.05
2022-12-26T00:07:26.013Z,1002.04
2022-12-26T00:08:26.001Z,1002.14
2022-12-26T00:09:25.986Z,1002.20
2022-12-26T00:10:25.966Z,1002.21
2022-12-26T00:11:25.946Z,1002.24
2022-12-26T00:12:25.919Z,1002.25
2022-12-26T00:13:38.861Z,1002.22
2022-12-26T00:14:25.883Z,1002.28
2022-12-26T00:15:25.866Z,1002.30
2022-12-26T00:16:25.908Z,1002.28
2022-12-26T00:17:25.821Z,1002.23
2022-12-26T00:18:25.799Z,1002.20
2022-12-26T00:19:25.769Z,1002.21
2022-12-26T00:20:25.775Z,1002.18
2022-12-26T00:21:25.750Z,1002.18
2022-12-26T00:22:25.718Z,1002.16
2022-12-26T00:23:25.686Z,1002.16
2022-12-26T00:24:25.679Z,1002.24
2022-12-26T00:25:25.664Z,1002.23
2022-12-26T00:26:25.632Z,1002.22
2022-12-26T00:27:25.608Z,1002.24
2022-12-26T00:28:25.599Z,1002.26
2022-12-26T00:29:25.576Z,1002.31
2022-12-26T00:30:25.588Z,1002.27
2022-12-26T00:31:25.650Z,1002.28
2022-12-26T00:32:25.514Z,1002.28
2022-12-26T00:33:25.496Z,1002.29
2022-12-26T00:34:25.487Z,1002.29
2022-12-26T00:35:25.466Z,1002.26
2022-12-26T00:36:25.460Z,1002.27
2022-12-26T00:37:25.419Z,1002.28
2022-12-26T00:38:25.392Z,1002.27
2022-12-26T00:39:25.404Z,1002.22
2022-12-26T00:40:25.355Z,1002.24
2022-12-26T00:41:25.323Z,1002.25
2022-12-26T00:42:25.308Z,1002.24
2022-12-26T00:43:25.292Z,1002.26
2022-12-26T00:44:25.284Z,1002.28
2022-12-26T00:45:25.254Z,1002.33
2022-12-26T00:46:25.271Z,1002.26
2022-12-26T00:47:25.225Z,1002.23
2022-12-26T00:48:25.182Z,1002.22
2022-12-26T00:49:25.176Z,1002.22
2022-12-26T00:50:29.613Z,1002.21
2022-12-26T00:51:25.140Z,1002.24
2022-12-26T00:52:25.123Z,1002.23
2022-12-26T00:53:25.085Z,1002.26
2022-12-26T00:54:25.066Z,1002.29
2022-12-26T00:55:25.044Z,1002.35
2022-12-26T00:56:25.025Z,1002.37
2022-12-26T00:57:24.999Z,1002.41
2022-12-26T00:58:24.978Z,1002.40
2022-12-26T00:59:24.963Z,1002.37
2022-12-26T01:00:24.937Z,1002.31
2022-12-26T01:01:25.133Z,1002.36
2022-12-26T01:02:24.999Z,1002.36
2022-12-26T01:03:24.950Z,1002.38
2022-12-26T01:04:24.854Z,1002.36
2022-12-26T01:05:24.833Z,1002.38
2022-12-26T01:06:24.819Z,1002.38
2022-12-26T01:07:24.794Z,1002.43
2022-12-26T01:08:25.192Z,1002.48
2022-12-26T01:09:24.761Z,1002.42
2022-12-26T01:10:24.736Z,1002.39
2022-12-26T01:11:24.718Z,1002.43
2022-12-26T01:12:24.696Z,1002.48
2022-12-26T01:13:24.670Z,1002.54
2022-12-26T01:14:24.659Z,1002.46
2022-12-26T01:15:24.637Z,1002.43
2022-12-26T01:16:24.757Z,1002.50
2022-12-26T01:17:24.585Z,1002.57
2022-12-26T01:18:24.575Z,1002.56
2022-12-26T01:19:24.549Z,1002.58
2022-12-26T01:20:24.529Z,1002.61
2022-12-26T01:21:24.508Z,1002.65
2022-12-26T01:22:24.483Z,1002.64
2022-12-26T01:23:24.467Z,1002.66
2022-12-26T01:24:24.476Z,1002.65
2022-12-26T01:25:24.423Z,1002.66
2022-12-26T01:26:24.400Z,1002.68
2022-12-26T01:27:24.387Z,1002.67
2022-12-26T01:28:24.361Z,1002.64
2022-12-26T01:29:24.342Z,1002.61
2022-12-26T01:30:24.319Z,1002.53
2022-12-26T01:31:24.376Z,1002.56
2022-12-26T01:32:24.298Z,1002.58
2022-12-26T01:33:24.254Z,1002.58
2022-12-26T01:34:24.242Z,1002.60
2022-12-26T01:35:24.214Z,1002.54
2022-12-26T01:36:24.197Z,1002.63
2022-12-26T01:37:24.177Z,1002.64
2022-12-26T01:38:24.148Z,1002.68
2022-12-26T01:39:24.128Z,1002.65
2022-12-26T01:40:24.136Z,1002.68
2022-12-26T01:41:24.088Z,1002.71
2022-12-26T01:42:24.095Z,1002.72
2022-12-26T01:43:24.053Z,1002.76
2022-12-26T01:44:24.036Z,1002.66
2022-12-26T01:45:24.141Z,1002.67
2022-12-26T01:46:24.159Z,1002.69
2022-12-26T01:47:23.981Z,1002.73
2022-12-26T01:48:23.962Z,1002.78
2022-12-26T01:49:23.929Z,1002.81
2022-12-26T01:50:23.901Z,1002.82
2022-12-26T01:51:23.892Z,1002.81
2022-12-26T01:52:23.871Z,1002.77
2022-12-26T01:53:23.846Z,1002.74
2022-12-26T01:54:41.208Z,1002.69
2022-12-26T01:55:23.803Z,1002.69
2022-12-26T01:56:23.804Z,1002.67
2022-12-26T01:57:23.772Z,1002.67
2022-12-26T01:58:23.739Z,1002.70
2022-12-26T01:59:23.719Z,1002.74
2022-12-26T02:00:23.706Z,1002.71
2022-12-26T02:01:23.754Z,1002.70
2022-12-26T02:02:23.827Z,1002.67
2022-12-26T02:03:23.696Z,1002.70
2022-12-26T02:04:23.616Z,1002.75
2022-12-26T02:05:23.612Z,1002.70
2022-12-26T02:06:23.573Z,1002.65
2022-12-26T02:07:23.552Z,1002.65
2022-12-26T02:08:23.540Z,1002.64
2022-12-26T02:09:23.512Z,1002.66
2022-12-26T02:10:23.486Z,1002.69
2022-12-26T02:11:23.476Z,1002.65
2022-12-26T02:12:36.185Z,1002.67
2022-12-26T02:13:23.430Z,1002.63
2022-12-26T02:14:23.414Z,1002.66
2022-12-26T02:15:23.393Z,1002.68
2022-12-26T02:16:23.395Z,1002.69
2022-12-26T02:17:23.343Z,1002.77
2022-12-26T02:18:23.327Z,1002.73
2022-12-26T02:19:23.305Z,1002.75
2022-12-26T02:20:23.286Z,1002.73
2022-12-26T02:21:23.259Z,1002.78
2022-12-26T02:22:23.241Z,1002.84
2022-12-26T02:23:23.217Z,1002.88
2022-12-26T02:24:23.202Z,1002.95
2022-12-26T02:25:23.185Z,1002.93
2022-12-26T02:26:23.160Z,1002.97
2022-12-26T02:27:23.136Z,1003.01
2022-12-26T02:28:23.160Z,1003.01
2022-12-26T02:29:23.106Z,1002.98
2022-12-26T02:30:23.074Z,1002.91
2022-12-26T02:31:23.067Z,1002.88
2022-12-26T02:32:23.048Z,1002.89
2022-12-26T02:33:23.014Z,1002.92
2022-12-26T02:34:23.004Z,1002.99
2022-12-26T02:35:22.972Z,1003.03
2022-12-26T02:36:22.953Z,1003.07
2022-12-26T02:37:22.945Z,1003.07
2022-12-26T02:38:22.911Z,1003.00
2022-12-26T02:39:43.362Z,1002.98
2022-12-26T02:40:22.879Z,1003.01
2022-12-26T02:41:22.849Z,1003.04
2022-12-26T02:42:22.826Z,1002.99
2022-12-26T02:43:22.804Z,1002.99
2022-12-26T02:44:22.829Z,1002.99
2022-12-26T02:45:22.763Z,1002.98
2022-12-26T02:46:22.800Z,1002.96
2022-12-26T02:47:22.726Z,1002.91
2022-12-26T02:48:22.705Z,1002.88
2022-12-26T02:49:22.683Z,1002.85
2022-12-26T02:50:22.672Z,1002.86
2022-12-26T02:51:22.641Z,1002.84
2022-12-26T02:52:22.627Z,1002.86
2022-12-26T02:53:22.597Z,1002.86
2022-12-26T02:54:22.583Z,1002.87
2022-12-26T02:55:22.566Z,1002.86
2022-12-26T02:56:22.532Z,1002.91
2022-12-26T02:57:22.533Z,1002.95
2022-12-26T02:58:22.523Z,1003.00
2022-12-26T02:59:54.047Z,1003.00
2022-12-26T03:00:22.483Z,1003.02
2022-12-26T03:01:22.566Z,1003.02
2022-12-26T03:02:22.749Z,1003.04
2022-12-26T03:03:22.467Z,1003.00
2022-12-26T03:04:22.371Z,1002.97
2022-12-26T03:05:22.350Z,1002.99
2022-12-26T03:06:22.335Z,1002.98
2022-12-26T03:07:22.312Z,1002.97
2022-12-26T03:08:22.287Z,1002.95
2022-12-26T03:09:22.264Z,1002.91
2022-12-26T03:10:22.258Z,1002.92
2022-12-26T03:11:22.219Z,1002.93
2022-12-26T03:12:22.218Z,1002.94
2022-12-26T03:13:22.181Z,1002.91
2022-12-26T03:14:22.161Z,1002.92
2022-12-26T03:15:22.137Z,1002.92
2022-12-26T03:16:22.176Z,1002.91
2022-12-26T03:17:22.092Z,1002.93
2022-12-26T03:18:59.472Z,1002.93
2022-12-26T03:19:22.063Z,1002.89
2022-12-26T03:20:22.039Z,1002.91
2022-12-26T03:21:22.013Z,1002.92
2022-12-26T03:22:22.003Z,1002.98
2022-12-26T03:23:21.978Z,1002.96
2022-12-26T03:24:21.953Z,1002.98
2022-12-26T03:25:21.932Z,1002.97
2022-12-26T03:26:21.907Z,1003.00
2022-12-26T03:27:21.888Z,1003.00
2022-12-26T03:28:21.879Z,1003.06
2022-12-26T03:29:21.844Z,1003.09
2022-12-26T03:30:21.827Z,1003.08
2022-12-26T03:31:21.954Z,1003.10
2022-12-26T03:32:21.807Z,1003.08
2022-12-26T03:33:21.766Z,1003.03
2022-12-26T03:34:21.764Z,1003.06
2022-12-26T03:35:21.748Z,1003.02
2022-12-26T03:36:21.704Z,1003.00
2022-12-26T03:37:21.694Z,1003.02
2022-12-26T03:38:21.670Z,1003.04
2022-12-26T03:39:21.646Z,1003.02
2022-12-26T03:40:21.625Z,1003.00
2022-12-26T03:41:21.602Z,1003.06
2022-12-26T03:42:21.577Z,1003.02
2022-12-26T03:43:21.553Z,1003.03
2022-12-26T03:44:21.531Z,1003.09
2022-12-26T03:45:21.516Z,1003.09
2022-12-26T03:46:21.575Z,1003.10
2022-12-26T03:47:21.479Z,1003.09
2022-12-26T03:48:21.478Z,1003.12
2022-12-26T03:49:21.427Z,1003.19
2022-12-26T03:50:21.413Z,1003.12
2022-12-26T03:51:21.388Z,1003.08
2022-12-26T03:52:21.372Z,1003.08
2022-12-26T03:53:21.359Z,1003.03
2022-12-26T03:54:21.324Z,1003.06
2022-12-26T03:55:21.309Z,1003.07
2022-12-26T03:56:21.286Z,1003.13
2022-12-26T03:57:21.269Z,1003.13
2022-12-26T03:58:21.238Z,1003.12
2022-12-26T03:59:21.279Z,1003.13
2022-12-26T04:00:21.203Z,1003.05
2022-12-26T04:01:21.312Z,1003.12
2022-12-26T04:02:21.325Z,1003.13
2022-12-26T04:03:21.152Z,1003.15
2022-12-26T04:04:21.139Z,1003.15
2022-12-26T04:05:21.091Z,1003.15
2022-12-26T04:06:21.098Z,1003.17
2022-12-26T04:07:21.056Z,1003.20
2022-12-26T04:08:21.039Z,1003.22
2022-12-26T04:09:21.023Z,1003.22
2022-12-26T04:10:20.993Z,1003.21
2022-12-26T04:11:20.981Z,1003.18
2022-12-26T04:12:20.949Z,1003.13
2022-12-26T04:13:20.925Z,1003.12
2022-12-26T04:14:20.909Z,1003.05
2022-12-26T04:15:20.888Z,1003.10
2022-12-26T04:16:20.924Z,1003.09
2022-12-26T04:17:20.843Z,1003.04
2022-12-26T04:18:20.860Z,1003.01
2022-12-26T04:19:20.814Z,1003.02
2022-12-26T04:20:20.801Z,1002.98
2022-12-26T04:21:20.772Z,1002.96
2022-12-26T04:22:20.755Z,1002.96
2022-12-26T04:23:20.725Z,1002.95
2022-12-26T04:24:20.704Z,1002.96
2022-12-26T04:25:20.684Z,1002.99
2022-12-26T04:26:20.656Z,1003.03
2022-12-26T04:27:20.629Z,1002.99
2022-12-26T04:28:20.629Z,1003.07
2022-12-26T04:29:20.596Z,1003.05
2022-12-26T04:30:20.596Z,1003.11
2022-12-26T04:31:20.597Z,1003.12
2022-12-26T04:32:20.537Z,1003.10
2022-12-26T04:33:20.509Z,1003.14
2022-12-26T04:34:20.489Z,1003.18
2022-12-26T04:35:20.464Z,1003.16
2022-12-26T04:36:20.490Z,1003.17
2022-12-26T04:37:20.422Z,1003.27
2022-12-26T04:38:20.407Z,1003.23
2022-12-26T04:39:20.383Z,1003.25
2022-12-26T04:40:20.364Z,1003.29
2022-12-26T04:41:20.341Z,1003.34
2022-12-26T04:42:20.319Z,1003.34
2022-12-26T04:43:47.547Z,1003.35
2022-12-26T04:44:20.277Z,1003.37
2022-12-26T04:45:20.255Z,1003.33
2022-12-26T04:46:20.291Z,1003.34
2022-12-26T04:47:20.220Z,1003.34
2022-12-26T04:48:20.198Z,1003.33
2022-12-26T04:49:20.175Z,1003.36
2022-12-26T04:50:20.157Z,1003.30
2022-12-26T04:51:20.128Z,1003.21
2022-12-26T04:52:20.133Z,1003.27
2022-12-26T04:53:20.095Z,1003.30
2022-12-26T04:54:20.067Z,1003.34
2022-12-26T04:55:20.044Z,1003.38
2022-12-26T04:56:20.047Z,1003.35
2022-12-26T04:57:20.006Z,1003.42
2022-12-26T04:58:19.980Z,1003.44
2022-12-26T04:59:19.964Z,1003.49
2022-12-26T05:00:19.951Z,1003.52
2022-12-26T05:01:20.044Z,1003.52
2022-12-26T05:02:20.038Z,1003.55
2022-12-26T05:03:19.986Z,1003.59
2022-12-26T05:04:19.862Z,1003.53
2022-12-26T05:05:19.833Z,1003.51
2022-12-26T05:06:19.809Z,1003.49
2022-12-26T05:07:19.787Z,1003.47
2022-12-26T05:08:19.788Z,1003.52
2022-12-26T05:09:19.752Z,1003.52
2022-12-26T05:10:19.734Z,1003.53
2022-12-26T05:11:19.703Z,1003.56
2022-12-26T05:12:19.687Z,1003.51
2022-12-26T05:13:19.664Z,1003.53
2022-12-26T05:14:19.649Z,1003.58
2022-12-26T05:15:19.634Z,1003.60
2022-12-26T05:16:19.696Z,1003.60
2022-12-26T05:17:19.579Z,1003.58
2022-12-26T05:18:19.563Z,1003.58
2022-12-26T05:19:19.535Z,1003.59
2022-12-26T05:20:19.537Z,1003.66
2022-12-26T05:21:19.495Z,1003.75
2022-12-26T05:22:19.474Z,1003.73
2022-12-26T05:23:19.454Z,1003.71
2022-12-26T05:24:19.456Z,1003.73
2022-12-26T05:25:19.413Z,1003.65
2022-12-26T05:26:19.391Z,1003.64
2022-12-26T05:27:19.364Z,1003.58
2022-12-26T05:28:19.345Z,1003.58
2022-12-26T05:29:19.324Z,1003.57
2022-12-26T05:30:19.306Z,1003.64
2022-12-26T05:31:19.413Z,1003.61
2022-12-26T05:32:19.260Z,1003.58
2022-12-26T05:33:19.239Z,1003.53
2022-12-26T05:34:19.223Z,1003.54
2022-12-26T05:35:19.204Z,1003.53
2022-12-26T05:36:19.189Z,1003.51
2022-12-26T05:37:19.155Z,1003.54
2022-12-26T05:38:19.134Z,1003.57
2022-12-26T05:39:19.111Z,1003.57
2022-12-26T05:40:19.109Z,1003.54
2022-12-26T05:41:19.070Z,1003.51
2022-12-26T05:42:19.049Z,1003.57
2022-12-26T05:43:19.023Z,1003.55
2022-12-26T05:44:19.003Z,1003.55
2022-12-26T05:45:19.001Z,1003.57
2022-12-26T05:46:19.006Z,1003.57
2022-12-26T05:47:18.939Z,1003.55
2022-12-26T05:48:18.925Z,1003.56
2022-12-26T05:49:18.911Z,1003.64
2022-12-26T05:50:18.925Z,1003.66
2022-12-26T05:51:18.859Z,1003.70
2022-12-26T05:52:18.852Z,1003.71
2022-12-26T05:53:18.814Z,1003.73
2022-12-26T05:54:18.791Z,1003.72
2022-12-26T05:55:18.773Z,1003.71
2022-12-26T05:56:18.780Z,1003.70
2022-12-26T05:57:18.722Z,1003.72
2022-12-26T05:58:18.709Z,1003.79
2022-12-26T05:59:18.705Z,1003.79
2022-12-26T06:00:18.681Z,1003.85
2022-12-26T06:01:18.767Z,1003.82
2022-12-26T06:02:18.761Z,1003.84
2022-12-26T06:03:18.839Z,1003.81
2022-12-26T06:04:18.592Z,1003.75
2022-12-26T06:05:18.557Z,1003.77
2022-12-26T06:06:18.533Z,1003.77
2022-12-26T06:07:18.508Z,1003.77
2022-12-26T06:08:18.487Z,1003.79
2022-12-26T06:09:18.480Z,1003.85
2022-12-26T06:10:18.454Z,1003.80
2022-12-26T06:11:18.421Z,1003.80
2022-12-26T06:12:18.422Z,1003.77
2022-12-26T06:13:18.385Z,1003.74
2022-12-26T06:14:18.368Z,1003.75
2022-12-26T06:15:18.340Z,1003.69
2022-12-26T06:16:18.449Z,1003.69
2022-12-26T06:17:18.301Z,1003.74
2022-12-26T06:18:18.283Z,1003.68
2022-12-26T06:19:18.259Z,1003.60
2022-12-26T06:20:18.248Z,1003.56
2022-12-26T06:21:18.221Z,1003.58
2022-12-26T06:22:18.197Z,1003.53
2022-12-26T06:23:18.168Z,1003.51
2022-12-26T06:24:18.154Z,1003.50
2022-12-26T06:25:18.126Z,1003.50
2022-12-26T06:26:18.117Z,1003.49
2022-12-26T06:27:18.083Z,1003.47
2022-12-26T06:28:18.087Z,1003.43
2022-12-26T06:29:18.044Z,1003.44
2022-12-26T06:30:18.027Z,1003.47
2022-12-26T06:31:18.226Z,1003.45
2022-12-26T06:32:17.981Z,1003.43
2022-12-26T06:33:17.960Z,1003.43
2022-12-26T06:34:17.940Z,1003.44
2022-12-26T06:35:17.916Z,1003.43
2022-12-26T06:36:17.894Z,1003.46
2022-12-26T06:37:17.879Z,1003.50
2022-12-26T06:38:17.858Z,1003.45
2022-12-26T06:39:17.843Z,1003.49
2022-12-26T06:40:17.815Z,1003.49
2022-12-26T06:41:17.804Z,1003.49
2022-12-26T06:42:17.784Z,1003.46
2022-12-26T06:43:17.743Z,1003.43
2022-12-26T06:44:18.690Z,1003.38
2022-12-26T06:45:17.701Z,1003.37
2022-12-26T06:46:17.763Z,1003.32
2022-12-26T06:47:17.736Z,1003.31
2022-12-26T06:48:17.637Z,1003.32
2022-12-26T06:49:17.629Z,1003.33
2022-12-26T06:50:17.602Z,1003.38
2022-12-26T06:51:17.586Z,1003.34
2022-12-26T06:52:17.561Z,1003.38
2022-12-26T06:53:17.538Z,1003.34
2022-12-26T06:54:17.513Z,1003.40
2022-12-26T06:55:17.495Z,1003.42
2022-12-26T06:56:17.474Z,1003.48
2022-12-26T06:57:17.447Z,1003.54
2022-12-26T06:58:17.432Z,1003.55
2022-12-26T06:59:17.406Z,1003.57
2022-12-26T07:00:17.404Z,1003.56
2022-12-26T07:01:17.580Z,1003.57
2022-12-26T07:02:17.478Z,1003.61
2022-12-26T07:03:17.360Z,1003.58
2022-12-26T07:04:17.304Z,1003.59
2022-12-26T07:05:17.282Z,1003.64
2022-12-26T07:06:17.259Z,1003.65
2022-12-26T07:07:17.232Z,1003.71
2022-12-26T07:08:17.222Z,1003.76
2022-12-26T07:09:17.295Z,1003.71
2022-12-26T07:10:17.180Z,1003.77
2022-12-26T07:11:17.151Z,1003.80
2022-12-26T07:12:17.135Z,1003.75
2022-12-26T07:13:17.111Z,1003.77
2022-12-26T07:14:17.105Z,1003.78
2022-12-26T07:15:17.064Z,1003.85
2022-12-26T07:16:17.135Z,1003.89
2022-12-26T07:17:17.026Z,1003.93
2022-12-26T07:18:17.005Z,1004.00
2022-12-26T07:19:16.988Z,1004.06
2022-12-26T07:20:16.969Z,1004.11
2022-12-26T07:21:16.950Z,1004.03
2022-12-26T07:22:16.926Z,1004.06
2022-12-26T07:23:16.894Z,1004.03
2022-12-26T07:24:16.878Z,1003.96
2022-12-26T07:25:16.857Z,1004.05
2022-12-26T07:26:16.834Z,1004.05
2022-12-26T07:27:16.817Z,1004.02
2022-12-26T07:28:16.800Z,1004.00
2022-12-26T07:29:16.784Z,1004.01
2022-12-26T07:30:16.756Z,1003.99
2022-12-26T07:31:16.843Z,1004.01
2022-12-26T07:32:16.728Z,1003.98
2022-12-26T07:33:16.682Z,1004.08
2022-12-26T07:34:16.659Z,1004.06
2022-12-26T07:35:16.648Z,1003.99
2022-12-26T07:36:16.625Z,1003.94
2022-12-26T07:37:16.599Z,1003.94
2022-12-26T07:38:16.574Z,1003.93
2022-12-26T07:39:16.560Z,1003.97
2022-12-26T07:40:16.559Z,1003.96
2022-12-26T07:41:16.517Z,1003.98
2022-12-26T07:42:16.488Z,1004.05
2022-12-26T07:43:16.477Z,1004.11
2022-12-26T07:44:16.443Z,1004.14
2022-12-26T07:45:16.430Z,1004.09
2022-12-26T07:46:16.452Z,1004.06
2022-12-26T07:47:16.391Z,1004.09
2022-12-26T07:48:16.388Z,1004.04
2022-12-26T07:49:16.361Z,1004.04
2022-12-26T07:50:16.317Z,1003.94
2022-12-26T07:51:16.295Z,1003.99
2022-12-26T07:52:16.275Z,1004.00
2022-12-26T07:53:16.250Z,1003.98
2022-12-26T07:54:16.240Z,1003.96
2022-12-26T07:55:16.214Z,1003.94
2022-12-26T07:56:16.197Z,1003.97
2022-12-26T07:57:46.823Z,1003.97
2022-12-26T07:58:16.145Z,1004.02
2022-12-26T07:59:16.155Z,1004.04
2022-12-26T08:00:16.112Z,1004.04
2022-12-26T08:01:16.327Z,1004.01
2022-12-26T08:02:16.239Z,1004.06
2022-12-26T08:03:16.167Z,1004.04
2022-12-26T08:04:16.074Z,1004.03
2022-12-26T08:05:15.998Z,1004.03
2022-12-26T08:06:15.977Z,1004.01
2022-12-26T08:07:15.954Z,1004.00
2022-12-26T08:08:15.936Z,1003.97
2022-12-26T08:09:16.059Z,1003.95
2022-12-26T08:10:15.888Z,1003.95
2022-12-26T08:11:15.871Z,1003.97
2022-12-26T08:12:15.853Z,1003.94
2022-12-26T08:13:15.828Z,1004.01
2022-12-26T08:14:15.803Z,1004.03
2022-12-26T08:15:15.796Z,1004.07
2022-12-26T08:16:15.854Z,1004.10
2022-12-26T08:17:15.786Z,1004.10
2022-12-26T08:18:15.723Z,1004.15
2022-12-26T08:19:15.695Z,1004.20
2022-12-26T08:20:15.702Z,1004.16
2022-12-26T08:21:15.660Z,1004.18
2022-12-26T08:22:15.638Z,1004.17
2022-12-26T08:23:15.614Z,1004.20
2022-12-26T08:24:15.593Z,1004.19
2022-12-26T08:25:18.370Z,1004.26
2022-12-26T08:26:15.548Z,1004.28
2022-12-26T08:27:15.526Z,1004.26
2022-12-26T08:28:15.508Z,1004.33
2022-12-26T08:29:15.504Z,1004.30
2022-12-26T08:30:15.467Z,1004.36
2022-12-26T08:31:15.457Z,1004.37
2022-12-26T08:32:15.430Z,1004.35
2022-12-26T08:33:15.395Z,1004.30
2022-12-26T08:34:15.380Z,1004.40
2022-12-26T08:35:15.368Z,1004.38
2022-12-26T08:36:15.358Z,1004.34
2022-12-26T08:37:15.318Z,1004.41
2022-12-26T08:38:15.288Z,1004.38
2022-12-26T08:39:15.280Z,1004.39
2022-12-26T08:40:15.665Z,1004.35
2022-12-26T08:41:15.228Z,1004.32
2022-12-26T08:42:15.209Z,1004.32
2022-12-26T08:43:44.970Z,1004.35
2022-12-26T08:44:30.631Z,1004.27
2022-12-26T08:45:15.143Z,1004.36
2022-12-26T08:46:15.169Z,1004.30
2022-12-26T08:47:15.103Z,1004.31
2022-12-26T08:48:15.077Z,1004.26
2022-12-26T08:49:15.051Z,1004.32
2022-12-26T08:50:15.033Z,1004.29
2022-12-26T08:51:15.018Z,1004.44
2022-12-26T08:52:15.020Z,1004.35
2022-12-26T08:53:14.974Z,1004.34
2022-12-26T08:54:14.961Z,1004.26
2022-12-26T08:55:14.930Z,1004.24
2022-12-26T08:56:14.912Z,1004.22
2022-12-26T08:57:14.885Z,1004.27
2022-12-26T08:58:14.887Z,1004.24
2022-12-26T08:59:14.847Z,1004.28
2022-12-26T09:00:14.828Z,1004.20
2022-12-26T09:01:14.935Z,1004.23
2022-12-26T09:02:14.933Z,1004.22
2022-12-26T09:03:14.794Z,1004.24
2022-12-26T09:04:14.738Z,1004.26
2022-12-26T09:05:14.714Z,1004.25
2022-12-26T09:06:14.692Z,1004.23
2022-12-26T09:07:14.668Z,1004.31
2022-12-26T09:08:14.682Z,1004.31
2022-12-26T09:09:14.628Z,1004.27
2022-12-26T09:10:14.611Z,1004.42
2022-12-26T09:11:14.594Z,1004.33
2022-12-26T09:12:14.586Z,1004.30
2022-12-26T09:13:14.548Z,1004.38
2022-12-26T09:14:14.536Z,1004.52
2022-12-26T09:15:14.506Z,1004.35
2022-12-26T09:16:14.535Z,1004.30
2022-12-26T09:17:14.490Z,1004.33
2022-12-26T09:18:14.465Z,1004.46
2022-12-26T09:19:14.434Z,1004.43
2022-12-26T09:20:14.423Z,1004.45
2022-12-26T09:21:14.397Z,1004.49
2022-12-26T09:22:14.385Z,1004.75
2022-12-26T09:23:14.356Z,1004.75
2022-12-26T09:24:14.369Z,1004.77
2022-12-26T09:25:14.330Z,1004.59
2022-12-26T09:26:14.323Z,1004.49
2022-12-26T09:27:14.284Z,1004.63
2022-12-26T09:28:14.274Z,1004.51
2022-12-26T09:29:14.256Z,1004.62
2022-12-26T09:30:14.242Z,1004.67
2022-12-26T09:31:14.295Z,1004.82
2022-12-26T09:32:14.212Z,1004.85
2022-12-26T09:33:14.180Z,1004.64
2022-12-26T09:34:14.167Z,1004.98
2022-12-26T09:35:14.157Z,1005.31
2022-12-26T09:36:15.054Z,1004.77
2022-12-26T09:37:14.112Z,1005.32
2022-12-26T09:38:14.109Z,1005.18
2022-12-26T09:39:14.079Z,1005.35
2022-12-26T09:40:14.099Z,1005.31
2022-12-26T09:41:14.044Z,1005.02
2022-12-26T09:42:14.042Z,1005.11
2022-12-26T09:43:14.015Z,1005.00
2022-12-26T09:44:14.006Z,1005.48
2022-12-26T09:45:13.989Z,1005.18
2022-12-26T09:46:14.031Z,1005.52
2022-12-26T09:47:13.968Z,1005.46
2022-12-26T09:48:13.952Z,1004.86
2022-12-26T09:49:13.938Z,1004.77
2022-12-26T09:50:13.927Z,1004.95
2022-12-26T09:51:13.904Z,1004.81
2022-12-26T09:52:13.899Z,1004.72
2022-12-26T09:53:13.878Z,1004.74
2022-12-26T09:54:13.870Z,1004.76
2022-12-26T09:55:13.847Z,1004.56
2022-12-26T09:56:23.757Z,1004.60
2022-12-26T09:57:15.254Z,1004.51
2022-12-26T09:58:13.806Z,1004.51
2022-12-26T09:59:13.778Z,1004.59
2022-12-26T10:00:13.766Z,1004.54
2022-12-26T10:01:13.932Z,1004.48
2022-12-26T10:02:13.850Z,1005.53
2022-12-26T10:03:13.712Z,1004.62
2022-12-26T10:04:13.740Z,1004.66
2022-12-26T10:05:13.676Z,1004.64
2022-12-26T10:06:13.660Z,1004.76
2022-12-26T10:07:13.638Z,1005.93
2022-12-26T10:08:13.630Z,1004.60
2022-12-26T10:09:13.608Z,1004.68
2022-12-26T10:10:13.600Z,1004.59
2022-12-26T10:11:13.566Z,1004.65
2022-12-26T10:12:13.587Z,1004.79
2022-12-26T10:13:13.526Z,1005.03
2022-12-26T10:14:19.649Z,1006.04
2022-12-26T10:15:13.489Z,1006.07
2022-12-26T10:16:13.529Z,1006.00
2022-12-26T10:17:13.457Z,1005.62
2022-12-26T10:18:13.452Z,1005.39
2022-12-26T10:19:13.424Z,1005.33
2022-12-26T10:20:13.418Z,1004.74
2022-12-26T10:21:13.389Z,1004.83
2022-12-26T10:22:13.372Z,1004.97
2022-12-26T10:23:13.349Z,1004.68
2022-12-26T10:24:13.338Z,1004.73
2022-12-26T10:25:13.316Z,1004.76
2022-12-26T10:26:13.304Z,1004.67
2022-12-26T10:27:13.281Z,1004.71
2022-12-26T10:28:13.292Z,1004.70
2022-12-26T10:29:13.245Z,1004.65
2022-12-26T10:30:13.240Z,1004.67
2022-12-26T10:31:13.328Z,1004.69
2022-12-26T10:32:13.194Z,1004.74
2022-12-26T10:33:13.169Z,1004.66
2022-12-26T10:34:13.163Z,1004.74
2022-12-26T10:35:13.142Z,1004.61
2022-12-26T10:36:13.127Z,1004.70
2022-12-26T10:37:13.106Z,1004.62
2022-12-26T10:38:13.076Z,1004.67
2022-12-26T10:39:13.059Z,1004.59
2022-12-26T10:40:13.044Z,1004.78
2022-12-26T10:41:13.026Z,1004.69
2022-12-26T10:42:13.006Z,1004.63
2022-12-26T10:43:12.983Z,1004.72
2022-12-26T10:44:12.995Z,1004.73
2022-12-26T10:45:12.952Z,1004.74
2022-12-26T10:46:13.005Z,1004.66
2022-12-26T10:47:12.904Z,1004.74
2022-12-26T10:48:12.895Z,1004.66
2022-12-26T10:49:12.872Z,1004.85
2022-12-26T10:50:12.852Z,1004.66
2022-12-26T10:51:12.832Z,1004.73
2022-12-26T10:52:12.826Z,1004.69
2022-12-26T10:53:12.797Z,1004.61
2022-12-26T10:54:12.768Z,1004.62
2022-12-26T10:55:29.345Z,1004.67
2022-12-26T10:56:16.494Z,1004.64
2022-12-26T10:57:12.710Z,1004.56
2022-12-26T10:58:12.693Z,1004.65
2022-12-26T10:59:12.669Z,1004.72
2022-12-26T11:00:12.669Z,1004.64
2022-12-26T11:01:12.729Z,1004.60
2022-12-26T11:02:12.684Z,1004.69
2022-12-26T11:03:12.817Z,1004.67
2022-12-26T11:04:12.574Z,1004.64
2022-12-26T11:05:22.125Z,1004.64
2022-12-26T11:06:12.531Z,1004.72
2022-12-26T11:07:12.513Z,1004.54
2022-12-26T11:08:12.498Z,1004.58
2022-12-26T11:09:12.478Z,1004.56
2022-12-26T11:10:12.452Z,1004.57
2022-12-26T11:11:12.433Z,1004.60
2022-12-26T11:12:12.416Z,1004.59
2022-12-26T11:13:12.392Z,1004.60
2022-12-26T11:14:12.373Z,1004.65
2022-12-26T11:15:12.347Z,1004.53
2022-12-26T11:16:12.424Z,1004.57
2022-12-26T11:17:12.314Z,1004.52
2022-12-26T11:18:12.288Z,1004.54
2022-12-26T11:19:12.270Z,1004.55
2022-12-26T11:20:12.252Z,1004.54
2022-12-26T11:21:12.912Z,1004.62
2022-12-26T11:22:12.212Z,1004.56
2022-12-26T11:23:12.184Z,1004.59
2022-12-26T11:24:12.171Z,1004.65
2022-12-26T11:25:12.148Z,1004.68
2022-12-26T11:26:12.131Z,1004.73
2022-12-26T11:27:12.904Z,1004.64
2022-12-26T11:28:12.095Z,1004.56
2022-12-26T11:29:12.065Z,1004.64
2022-12-26T11:30:12.057Z,1004.62
2022-12-26T11:31:12.043Z,1004.56
2022-12-26T11:32:12.034Z,1004.57
2022-12-26T11:33:14.885Z,1004.62
2022-12-26T11:34:11.965Z,1004.48
2022-12-26T11:35:11.944Z,1004.60
2022-12-26T11:36:11.932Z,1004.70
2022-12-26T11:37:11.906Z,1004.74
2022-12-26T11:38:11.892Z,1004.58
2022-12-26T11:39:11.864Z,1004.52
2022-12-26T11:40:11.851Z,1004.60
2022-12-26T11:41:11.830Z,1004.44
2022-12-26T11:42:11.815Z,1004.70
2022-12-26T11:43:11.782Z,1004.59
2022-12-26T11:44:11.774Z,1004.70
2022-12-26T11:45:11.745Z,1004.67
2022-12-26T11:46:11.771Z,1004.59
2022-12-26T11:47:11.712Z,1004.63
2022-12-26T11:48:11.711Z,1004.70
2022-12-26T11:49:11.665Z,1004.74
2022-12-26T11:50:11.661Z,1004.57
2022-12-26T11:51:11.621Z,1004.56
2022-12-26T11:52:11.602Z,1004.64
2022-12-26T11:53:11.585Z,1004.62
2022-12-26T11:54:11.566Z,1004.65
2022-12-26T11:55:11.540Z,1004.65
2022-12-26T11:56:11.521Z,1004.66
2022-12-26T11:57:11.501Z,1004.65
2022-12-26T11:58:11.513Z,1004.63
2022-12-26T11:59:11.466Z,1004.61
2022-12-26T12:00:11.447Z,1004.60
2022-12-26T12:01:11.441Z,1004.59
2022-12-26T12:02:11.480Z,1004.58
2022-12-26T12:03:11.428Z,1004.63
2022-12-26T12:04:11.380Z,1004.59
2022-12-26T12:05:11.344Z,1004.55